Time;durP1;ratioP1;P1;durP2;ratioP2;P2;SDS_P1;SDS_P2;PMS_P1;PMS_P2;Temp;Humidity;BMP_temperature;BMP_pressure;BME280_temperature;BME280_humidity;BME280_pressure;Samples;Min_cycle;Max_cycle;Signal;HPM_P1;HPM_P2
2021/03/23 00:01:14;;;;;;;13.10;6.53;;;;;;;1.43;75.06;96408.47;5036659;28;20425;-56
2021/03/23 00:03:47;;;;;;;14.40;6.55;;;;;;;1.47;75.02;96403.41;5045695;28;20052;-57
2021/03/23 00:06:17;;;;;;;13.48;6.90;;;;;;;1.54;74.51;96407.41;5045238;28;20152;-55
2021/03/23 00:08:52;;;;;;;13.77;5.93;;;;;;;1.44;74.68;96404.72;5042992;28;20041;-57
2021/03/23 00:11:28;;;;;;;13.52;7.15;;;;;;;1.47;74.81;96414.06;5056671;28;20114;-56
2021/03/23 00:13:58;;;;;;;13.32;6.82;;;;;;;1.48;74.71;96402.31;5053960;28;20116;-57
2021/03/23 00:16:29;;;;;;;16.88;7.10;;;;;;;1.35;75.11;96416.94;5053831;28;20045;-56
2021/03/23 00:18:57;;;;;;;14.60;7.18;;;;;;;1.32;75.84;96412.13;5041737;28;20147;-57
2021/03/23 00:21:25;;;;;;;13.45;7.47;;;;;;;1.35;75.11;96414.28;5052767;28;20057;-57
2021/03/23 00:23:52;;;;;;;13.20;6.65;;;;;;;1.50;74.46;96417.00;5053024;28;20041;-56
2021/03/23 00:26:21;;;;;;;16.88;7.15;;;;;;;1.36;75.22;96418.53;5049196;28;20052;-58
2021/03/23 00:28:49;;;;;;;14.77;7.88;;;;;;;1.46;74.83;96420.44;5033069;28;20057;-57
2021/03/23 00:31:17;;;;;;;17.48;8.73;;;;;;;1.37;75.37;96420.16;5033252;28;20494;-55
2021/03/23 00:33:57;;;;;;;15.95;7.45;;;;;;;1.38;75.61;96422.56;5033756;28;20064;-56
2021/03/23 00:36:27;;;;;;;15.27;8.77;;;;;;;1.37;75.32;96420.97;5036182;28;20045;-56
2021/03/23 00:38:55;;;;;;;15.18;6.78;;;;;;;1.37;75.28;96412.16;5034118;28;20056;-55
2021/03/23 00:41:22;;;;;;;12.90;7.03;;;;;;;1.53;74.92;96407.69;5036539;28;20468;-54
2021/03/23 00:43:49;;;;;;;17.38;6.85;;;;;;;1.65;74.26;96410.91;5052918;28;20055;-54
2021/03/23 00:46:16;;;;;;;19.02;7.78;;;;;;;1.70;73.92;96421.59;5044055;28;20073;-53
2021/03/23 00:48:42;;;;;;;14.80;7.43;;;;;;;1.60;74.29;96409.03;5051245;28;20139;-55
2021/03/23 00:51:09;;;;;;;13.73;7.30;;;;;;;1.48;74.74;96411.13;5049613;28;20061;-57
2021/03/23 00:53:36;;;;;;;13.85;6.72;;;;;;;1.55;74.70;96410.88;5052837;28;20513;-57
2021/03/23 00:56:02;;;;;;;11.27;6.28;;;;;;;1.34;75.55;96410.03;5037768;28;20404;-57
2021/03/23 00:58:29;;;;;;;14.05;7.28;;;;;;;1.47;74.91;96412.19;5032353;28;20054;-57
2021/03/23 01:00:55;;;;;;;14.23;7.20;;;;;;;1.54;74.64;96406.63;5031712;28;20053;-55
2021/03/23 01:03:22;;;;;;;14.70;6.63;;;;;;;1.63;73.98;96405.03;5032324;28;20052;-57
2021/03/23 01:05:50;;;;;;;15.20;6.75;;;;;;;1.49;74.81;96406.59;5031881;28;20368;-58
2021/03/23 01:08:17;;;;;;;13.00;7.63;;;;;;;1.43;75.06;96410.28;5037326;28;20052;-58
2021/03/23 01:10:44;;;;;;;13.70;7.10;;;;;;;1.43;75.25;96408.47;5052655;28;20075;-56
2021/03/23 01:13:11;;;;;;;12.80;7.00;;;;;;;1.38;75.50;96408.44;5050604;28;20067;-58
2021/03/23 01:15:38;;;;;;;17.02;7.22;;;;;;;1.39;75.59;96405.47;5052932;28;20680;-57
2021/03/23 01:18:06;;;;;;;13.05;7.00;;;;;;;1.41;75.54;96399.91;5034576;28;20094;-57
2021/03/23 01:20:33;;;;;;;14.05;7.03;;;;;;;1.34;75.70;96404.69;5052544;28;20053;-57
2021/03/23 01:23:01;;;;;;;18.17;8.27;;;;;;;1.31;75.64;96397.22;5051475;28;20450;-56
2021/03/23 01:25:27;;;;;;;14.02;7.47;;;;;;;1.31;75.83;96402.53;5052743;28;20083;-56
2021/03/23 01:27:54;;;;;;;16.67;7.88;;;;;;;1.37;75.37;96401.50;5033079;28;20060;-56
2021/03/23 01:30:23;;;;;;;16.17;7.95;;;;;;;1.45;75.38;96389.50;5052432;28;20260;-57
2021/03/23 01:32:51;;;;;;;16.98;7.43;;;;;;;1.54;74.92;96403.94;5051402;28;20049;-56
2021/03/23 01:35:19;;;;;;;13.93;7.35;;;;;;;1.52;74.76;96396.19;5047197;28;20410;-57
2021/03/23 01:37:46;;;;;;;17.05;8.55;;;;;;;1.55;74.60;96397.53;5036438;28;20077;-56
2021/03/23 01:40:15;;;;;;;14.82;7.28;;;;;;;1.37;75.23;96393.50;5051024;28;20068;-57
2021/03/23 01:42:44;;;;;;;12.70;7.00;;;;;;;1.48;75.11;96397.00;5050863;28;20060;-56
2021/03/23 01:45:17;;;;;;;14.43;7.22;;;;;;;1.34;75.14;96397.50;5048593;28;20060;-57
2021/03/23 01:47:44;;;;;;;14.60;7.93;;;;;;;1.37;75.40;96396.97;5031805;28;20046;-54
2021/03/23 01:50:11;;;;;;;14.82;6.90;;;;;;;1.52;74.69;96395.41;5051423;28;20057;-55
2021/03/23 01:52:38;;;;;;;16.90;8.00;;;;;;;1.36;75.48;96392.69;5051219;28;20056;-57
2021/03/23 01:55:08;;;;;;;16.73;8.70;;;;;;;1.36;75.69;96391.88;5045918;28;20053;-58
2021/03/23 01:57:37;;;;;;;14.48;7.75;;;;;;;1.28;75.46;96390.53;5051380;28;20135;-56
2021/03/23 02:00:07;;;;;;;18.08;8.40;;;;;;;1.05;76.55;96389.13;5031930;28;20061;-57
2021/03/23 02:02:35;;;;;;;17.40;8.15;;;;;;;1.02;76.70;96386.16;5031675;28;20076;-56
2021/03/23 02:05:19;;;;;;;16.25;8.25;;;;;;;1.28;75.94;96379.88;5034247;28;20049;-57
2021/03/23 02:07:46;;;;;;;14.63;7.57;;;;;;;1.16;76.21;96382.75;5044378;28;20712;-58
2021/03/23 02:10:17;;;;;;;20.05;8.65;;;;;;;1.24;75.89;96373.47;5071557;28;20045;-54
2021/03/23 02:12:45;;;;;;;17.92;9.15;;;;;;;1.25;75.72;96372.41;5069549;28;20052;-57
2021/03/23 02:15:13;;;;;;;14.48;7.55;;;;;;;1.20;76.13;96376.91;5058832;28;20053;-57
2021/03/23 02:17:40;;;;;;;17.65;8.63;;;;;;;1.24;75.84;96372.66;5049564;28;20049;-57
2021/03/23 02:20:18;;;;;;;17.33;8.52;;;;;;;1.09;76.51;96371.53;5067422;28;20087;-57
2021/03/23 02:22:50;;;;;;;16.60;8.60;;;;;;;1.10;76.68;96370.47;5057740;28;20048;-58
2021/03/23 02:25:23;;;;;;;19.13;8.70;;;;;;;1.24;76.14;96370.00;5044954;28;20417;-57
2021/03/23 02:27:51;;;;;;;;;;;;;;;1.17;76.48;96372.91;5066908;28;20049;-57
2021/03/23 02:30:39;;;;;;;16.83;8.80;;;;;;;1.07;76.87;96372.84;5052947;28;19949;-58
2021/03/23 02:33:07;;;;;;;16.45;7.72;;;;;;;1.11;76.75;96363.28;5063468;28;20068;-52
2021/03/23 02:35:34;;;;;;;18.35;8.90;;;;;;;1.01;77.12;96364.06;5050051;28;20144;-53
2021/03/23 02:38:01;;;;;;;19.48;9.10;;;;;;;1.07;76.76;96363.03;5039401;28;20061;-56
2021/03/23 02:40:29;;;;;;;19.10;8.70;;;;;;;0.95;77.38;96369.63;5038668;28;20497;-54
2021/03/23 02:42:56;;;;;;;18.13;8.43;;;;;;;1.01;77.10;96369.38;5063376;28;20139;-55
2021/03/23 02:45:23;;;;;;;16.92;8.50;;;;;;;0.96;77.43;96366.69;5061817;28;20056;-56
2021/03/23 02:47:50;;;;;;;17.60;9.23;;;;;;;0.86;77.63;96372.78;5043587;28;20073;-56
2021/03/23 02:50:17;;;;;;;18.17;9.75;;;;;;;0.86;77.88;96370.09;5066392;28;20486;-53
2021/03/23 02:52:44;;;;;;;18.42;8.88;;;;;;;0.87;77.86;96374.38;5050211;28;20087;-55
2021/03/23 02:55:12;;;;;;;17.40;8.75;;;;;;;0.91;77.46;96367.47;5046732;28;20053;-56
2021/03/23 02:57:38;;;;;;;21.33;9.50;;;;;;;0.96;77.24;96366.69;5039043;28;20045;-58
2021/03/23 03:00:07;;;;;;;18.73;9.50;;;;;;;0.98;77.23;96371.78;5048971;28;20110;-56
2021/03/23 03:02:34;;;;;;;18.40;9.52;;;;;;;0.97;76.98;96375.47;5047788;28;20467;-57
2021/03/23 03:05:01;;;;;;;17.80;8.52;;;;;;;0.88;77.48;96369.88;5031255;28;20126;-56
2021/03/23 03:07:27;;;;;;;20.77;9.23;;;;;;;0.77;77.96;96373.53;5030676;28;20049;-58
2021/03/23 03:09:54;;;;;;;16.77;9.50;;;;;;;0.99;77.16;96374.16;5043568;28;20048;-56
2021/03/23 03:12:20;;;;;;;23.00;11.52;;;;;;;0.71;78.04;96380.66;5051253;28;20367;-56
2021/03/23 03:14:47;;;;;;;15.60;8.40;;;;;;;0.64;78.62;96380.09;5050516;28;20063;-53
2021/03/23 03:17:13;;;;;;;15.90;8.73;;;;;;;0.63;78.46;96375.84;5043549;28;20045;-54
2021/03/23 03:19:40;;;;;;;18.63;8.68;;;;;;;0.57;78.94;96377.66;5042114;28;20049;-56
2021/03/23 03:22:07;;;;;;;18.95;9.57;;;;;;;0.56;79.10;96381.41;5035806;28;20441;-58
2021/03/23 03:24:33;;;;;;;22.50;9.48;;;;;;;0.52;79.27;96377.66;5040075;28;20162;-54
2021/03/23 03:27:00;;;;;;;18.33;9.45;;;;;;;0.59;79.09;96385.41;5050646;28;20044;-51
2021/03/23 03:29:26;;;;;;;18.80;10.50;;;;;;;0.53;79.24;96391.78;5048155;28;20049;-56
2021/03/23 03:31:53;;;;;;;19.08;8.90;;;;;;;0.56;79.06;96388.59;5050646;28;20057;-56
2021/03/23 03:34:21;;;;;;;19.45;9.88;;;;;;;0.81;78.43;96394.03;5048612;28;20045;-57
2021/03/23 03:36:47;;;;;;;17.70;9.93;;;;;;;0.85;78.47;96389.03;5049205;28;20103;-56
2021/03/23 03:39:14;;;;;;;22.15;10.52;;;;;;;0.74;78.45;96390.00;5035391;28;20091;-57
2021/03/23 03:41:41;;;;;;;24.52;9.88;;;;;;;1.01;77.50;96392.53;5051296;28;20045;-56
2021/03/23 03:44:08;;;;;;;18.13;9.60;;;;;;;1.04;77.37;96392.84;5054495;28;20056;-57
2021/03/23 03:46:34;;;;;;;17.85;8.85;;;;;;;0.95;77.53;96396.28;5047644;28;20055;-56
2021/03/23 03:49:01;;;;;;;19.20;9.68;;;;;;;0.79;78.07;96393.53;5054026;28;20674;-57
2021/03/23 03:51:28;;;;;;;19.13;9.52;;;;;;;0.74;78.27;96398.00;5053706;28;20402;-56
2021/03/23 03:53:55;;;;;;;16.13;9.95;;;;;;;0.76;78.79;96402.03;5054395;28;20123;-56
2021/03/23 03:56:21;;;;;;;20.33;10.00;;;;;;;0.91;77.90;96404.78;5037366;28;20088;-55
2021/03/23 03:58:48;;;;;;;17.33;9.63;;;;;;;0.95;77.65;96398.94;5054346;28;20053;-56
2021/03/23 04:01:14;;;;;;;19.50;10.20;;;;;;;0.89;77.54;96401.56;5053524;28;20064;-56
2021/03/23 04:03:41;;;;;;;20.00;10.70;;;;;;;0.94;77.76;96392.78;5048366;28;20049;-57
2021/03/23 04:06:08;;;;;;;18.88;10.13;;;;;;;0.75;78.23;96397.75;5051057;28;20057;-55
2021/03/23 04:08:37;;;;;;;23.10;9.75;;;;;;;0.66;78.61;96393.97;5051862;28;20099;-56
2021/03/23 04:11:07;;;;;;;20.17;10.18;;;;;;;0.99;77.22;96397.34;5053066;28;20132;-57
2021/03/23 04:13:34;;;;;;;18.85;10.38;;;;;;;0.79;78.06;96392.72;5047310;28;20415;-57
2021/03/23 04:16:01;;;;;;;17.05;9.60;;;;;;;0.82;78.00;96406.31;5034006;28;20111;-56
2021/03/23 04:18:29;;;;;;;19.45;9.73;;;;;;;0.87;78.11;96400.22;5038772;28;20049;-57
2021/03/23 04:20:59;;;;;;;22.02;10.15;;;;;;;0.94;77.50;96403.44;5053749;28;20118;-57
2021/03/23 04:23:38;;;;;;;21.52;9.82;;;;;;;1.01;77.46;96398.69;5051516;28;20125;-57
2021/03/23 04:26:09;;;;;;;21.70;9.98;;;;;;;0.75;78.23;96395.09;5033793;28;20045;-58
2021/03/23 04:28:38;;;;;;;21.70;9.98;;;;;;;0.66;78.77;96393.97;5033460;28;20080;-54
2021/03/23 04:31:07;;;;;;;19.60;10.05;;;;;;;0.69;78.58;96396.94;5036470;28;20521;-56
2021/03/23 04:33:35;;;;;;;22.85;10.40;;;;;;;0.74;78.43;96403.34;5036358;28;20054;-55
2021/03/23 04:36:07;;;;;;;21.77;10.05;;;;;;;0.75;78.49;96402.25;5033296;28;20061;-56
2021/03/23 04:38:37;;;;;;;20.63;10.25;;;;;;;0.85;78.17;96413.00;5037068;28;20073;-57
2021/03/23 04:41:07;;;;;;;27.73;10.50;;;;;;;0.78;78.12;96401.75;5033886;28;20087;-57
2021/03/23 04:43:37;;;;;;;21.92;9.43;;;;;;;0.84;78.08;96403.38;5052345;28;20072;-57
2021/03/23 04:46:04;;;;;;;20.65;10.57;;;;;;;0.80;78.03;96413.75;5051030;28;20053;-57
2021/03/23 04:48:31;;;;;;;18.85;9.32;;;;;;;0.78;77.76;96405.25;5053421;28;20088;-55
2021/03/23 04:50:58;;;;;;;17.20;9.50;;;;;;;0.62;78.56;96412.34;5052406;28;20449;-56
2021/03/23 04:53:29;;;;;;;20.30;9.65;;;;;;;0.87;77.98;96418.84;5053003;28;20139;-56
2021/03/23 04:55:56;;;;;;;23.17;9.90;;;;;;;0.72;78.19;96414.25;5052057;28;20103;-57
2021/03/23 04:58:24;;;;;;;23.58;9.65;;;;;;;0.79;78.04;96419.34;5053414;28;20052;-58
2021/03/23 05:00:51;;;;;;;19.05;10.25;;;;;;;0.79;78.34;96416.69;5052471;28;20064;-54
2021/03/23 05:03:29;;;;;;;19.35;9.77;;;;;;;0.80;78.31;96420.94;5041879;28;20531;-57
2021/03/23 05:06:04;;;;;;;23.05;10.68;;;;;;;0.84;77.81;96416.69;5044964;28;20054;-58
2021/03/23 05:08:32;;;;;;;21.02;10.23;;;;;;;0.78;78.02;96428.38;5037969;28;20057;-56
2021/03/23 05:10:58;;;;;;;21.33;10.93;;;;;;;0.67;78.57;96435.53;5033039;28;20056;-55
2021/03/23 05:13:25;;;;;;;21.20;10.25;;;;;;;0.84;78.06;96432.69;5051853;28;20041;-57
2021/03/23 05:15:51;;;;;;;23.45;10.60;;;;;;;0.82;77.86;96446.28;5047131;28;20057;-53
2021/03/23 05:18:18;;;;;;;22.45;11.40;;;;;;;0.83;78.38;96447.06;5051736;28;20525;-54
2021/03/23 05:20:44;;;;;;;22.27;10.75;;;;;;;0.85;78.48;96444.97;5051647;28;20056;-57
2021/03/23 05:23:14;;;;;;;24.13;10.50;;;;;;;1.00;77.60;96436.25;5052796;28;20057;-57
2021/03/23 05:25:42;;;;;;;22.13;11.73;;;;;;;0.81;78.26;96441.19;5048874;28;20110;-57
2021/03/23 05:28:10;;;;;;;25.55;10.68;;;;;;;0.69;78.65;96442.19;5051218;28;20045;-59
2021/03/23 05:30:38;;;;;;;19.60;11.20;;;;;;;0.78;78.61;96439.03;5051640;28;20106;-57
2021/03/23 05:33:06;;;;;;;21.17;11.35;;;;;;;0.91;78.19;96443.91;5052737;28;20439;-56
2021/03/23 05:35:34;;;;;;;22.70;11.73;;;;;;;0.86;78.10;96443.91;5046310;28;20044;-57
2021/03/23 05:38:01;;;;;;;22.30;11.90;;;;;;;0.99;77.52;96448.75;5049443;28;20411;-55
2021/03/23 05:40:34;;;;;;;21.00;11.40;;;;;;;0.98;77.96;96447.16;5037100;28;20388;-56
2021/03/23 05:43:38;;;;;;;22.90;12.45;;;;;;;0.87;78.35;96456.16;5052512;28;20081;-57
2021/03/23 05:46:18;;;;;;;25.55;11.45;;;;;;;1.20;77.49;96456.84;5048751;28;20456;-56
2021/03/23 05:48:58;;;;;;;23.95;12.20;;;;;;;1.04;77.25;96459.47;5052159;28;20049;-57
2021/03/23 05:51:35;;;;;;;22.67;11.95;;;;;;;0.98;77.66;96462.34;5050519;28;20095;-52
2021/03/23 05:54:11;;;;;;;22.63;11.88;;;;;;;0.84;78.37;96459.31;5051249;28;20627;-55
2021/03/23 05:56:39;;;;;;;23.70;11.80;;;;;;;0.82;78.49;96464.13;5032253;28;20153;-59
2021/03/23 05:59:24;;;;;;;24.88;12.32;;;;;;;0.90;77.98;96474.28;5051265;28;20056;-57
2021/03/23 06:02:05;;;;;;;25.00;12.13;;;;;;;0.88;78.06;96471.88;5049344;28;20157;-59
2021/03/23 06:04:55;;;;;;;23.40;11.65;;;;;;;1.11;77.16;96475.22;5031132;28;20096;-58
2021/03/23 06:07:21;;;;;;;25.55;11.45;;;;;;;1.01;77.77;96472.47;5046310;28;20060;-58
2021/03/23 06:09:48;;;;;;;25.30;12.35;;;;;;;1.19;77.22;96473.91;5051666;28;20048;-57
2021/03/23 06:12:39;;;;;;;22.52;11.95;;;;;;;1.16;77.48;96483.22;5051937;28;20053;-58
2021/03/23 06:15:08;;;;;;;24.77;13.13;;;;;;;1.52;76.47;96489.53;5050773;28;20048;-58
2021/03/23 06:17:38;;;;;;;25.27;11.52;;;;;;;1.33;76.63;96483.03;5051435;28;20053;-58
2021/03/23 06:20:23;;;;;;;25.30;13.60;;;;;;;1.42;76.65;96492.16;5056078;28;20413;-58
2021/03/23 06:23:17;;;;;;;24.30;11.73;;;;;;;1.32;77.14;96486.78;5057284;28;20127;-57
2021/03/23 06:26:20;;;;;;;23.65;11.80;;;;;;;1.26;77.48;96490.47;5049580;28;20049;-55
2021/03/23 06:29:09;;;;;;;22.80;13.27;;;;;;;1.41;76.90;96495.88;5045112;28;20053;-56
2021/03/23 06:31:48;;;;;;;28.58;12.98;;;;;;;1.71;76.00;96499.75;5051286;28;20071;-57
2021/03/23 06:34:19;;;;;;;26.02;12.18;;;;;;;1.51;76.26;96490.59;5039175;28;20065;-57
2021/03/23 06:36:46;;;;;;;26.40;13.68;;;;;;;1.50;77.07;96507.66;5040712;28;20056;-55
2021/03/23 06:39:13;;;;;;;28.70;13.60;;;;;;;1.73;75.96;96498.44;5043570;28;20053;-58
2021/03/23 06:42:03;;;;;;;28.95;13.55;;;;;;;1.76;75.38;96497.09;5051009;28;20057;-58
2021/03/23 06:44:35;;;;;;;26.23;13.35;;;;;;;1.94;74.80;96496.59;5041844;28;20045;-56
2021/03/23 06:47:02;;;;;;;22.33;12.80;;;;;;;2.02;75.06;96496.09;5048495;28;20052;-57
2021/03/23 06:49:35;;;;;;;27.85;13.88;;;;;;;1.87;75.45;96499.53;5050745;28;20051;-55
2021/03/23 06:52:22;;;;;;;29.30;13.27;;;;;;;2.07;75.02;96501.44;5050383;28;20103;-58
2021/03/23 06:55:27;;;;;;;29.75;13.70;;;;;;;2.43;73.67;96506.84;5045404;28;20689;-58
2021/03/23 06:57:54;;;;;;;26.13;13.82;;;;;;;2.50;73.67;96501.22;5048437;28;20064;-57
2021/03/23 07:00:32;;;;;;;38.40;15.95;;;;;;;2.77;73.31;96509.81;5050913;28;20608;-54
2021/03/23 07:03:23;;;;;;;23.38;13.05;;;;;;;2.18;74.60;96517.47;5020067;28;20052;-56
2021/03/23 07:05:52;;;;;;;26.02;13.63;;;;;;;2.41;74.20;96514.34;5049735;28;20490;-56
2021/03/23 07:08:25;;;;;;;26.17;14.07;;;;;;;2.20;74.78;96516.16;5042857;28;20502;-57
2021/03/23 07:10:51;;;;;;;24.43;12.27;;;;;;;2.17;75.20;96513.22;5050010;28;20057;-55
2021/03/23 07:13:42;;;;;;;23.92;10.82;;;;;;;2.03;75.92;96512.91;5051004;28;20722;-57
2021/03/23 07:16:11;;;;;;;22.52;10.93;;;;;;;1.97;76.06;96519.31;5028458;28;20057;-57
2021/03/23 07:18:43;;;;;;;23.52;12.23;;;;;;;2.30;75.17;96518.03;5043592;28;20072;-58
2021/03/23 07:21:37;;;;;;;21.80;11.00;;;;;;;2.41;74.41;96510.88;5050747;28;20056;-58
2021/03/23 07:24:07;;;;;;;24.63;12.70;;;;;;;2.54;74.16;96513.81;5040581;28;20053;-58
2021/03/23 07:26:36;;;;;;;23.35;13.18;;;;;;;2.52;74.13;96513.25;5030552;28;20050;-57
2021/03/23 07:29:12;;;;;;;27.25;12.98;;;;;;;2.52;74.30;96518.59;5045428;28;20049;-58
2021/03/23 07:31:46;;;;;;;24.80;13.48;;;;;;;2.26;75.08;96519.63;5047646;28;20049;-58
2021/03/23 07:34:18;;;;;;;30.92;13.27;;;;;;;2.39;75.11;96521.78;5050637;28;20053;-59
2021/03/23 07:36:50;;;;;;;25.17;12.77;;;;;;;2.47;74.34;96521.28;5047145;28;20065;-57
2021/03/23 07:39:50;;;;;;;23.17;11.38;;;;;;;2.45;74.68;96520.75;5047344;28;20052;-59
2021/03/23 07:42:30;;;;;;;25.65;13.50;;;;;;;2.64;74.15;96525.56;5050849;28;20421;-59
2021/03/23 07:45:07;;;;;;;23.50;12.52;;;;;;;2.43;74.28;96522.06;5040962;28;20135;-58
2021/03/23 07:48:07;;;;;;;26.95;12.77;;;;;;;2.37;74.86;96525.78;5043151;28;20047;-58
2021/03/23 07:50:43;;;;;;;25.35;13.30;;;;;;;2.86;73.50;96528.78;5050286;28;20455;-58
2021/03/23 07:53:39;;;;;;;23.35;12.40;;;;;;;2.70;72.96;96527.19;5050370;28;20053;-57
2021/03/23 07:56:41;;;;;;;23.00;12.77;;;;;;;2.68;73.05;96524.75;5042929;28;20102;-58
2021/03/23 07:59:21;;;;;;;26.52;14.25;;;;;;;2.93;71.94;96520.50;5048472;28;20064;-57
2021/03/23 08:02:16;;;;;;;23.95;11.45;;;;;;;2.78;72.25;96519.41;5049505;28;20053;-57
2021/03/23 08:04:48;;;;;;;21.83;11.52;;;;;;;2.74;72.69;96522.91;5045466;28;20053;-57
2021/03/23 08:08:08;;;;;;;23.67;12.30;;;;;;;2.79;71.90;96525.56;5042459;28;20056;-56
2021/03/23 08:10:45;;;;;;;22.50;10.68;;;;;;;2.62;73.04;96525.03;5012837;28;20045;-56
2021/03/23 08:13:29;;;;;;;25.88;11.98;;;;;;;3.10;71.78;96523.66;5041797;28;20202;-55
2021/03/23 08:16:26;;;;;;;29.42;12.70;;;;;;;3.23;70.75;96527.66;5045522;28;20049;-53
2021/03/23 08:19:02;;;;;;;21.48;11.13;;;;;;;3.55;69.72;96531.88;5046526;28;20128;-58
2021/03/23 08:21:58;;;;;;;21.83;11.55;;;;;;;3.35;69.85;96525.50;5046914;28;20465;-58
2021/03/23 08:24:51;;;;;;;26.20;11.23;;;;;;;3.11;70.18;96522.59;5034577;28;20586;-51
2021/03/23 08:27:42;;;;;;;33.25;13.95;;;;;;;3.49;69.98;96531.88;5049777;28;20057;-56
2021/03/23 08:31:01;;;;;;;20.88;11.43;;;;;;;3.57;69.00;96529.69;5052131;28;20045;-56
2021/03/23 08:33:48;;;;;;;25.65;11.57;;;;;;;3.70;68.63;96534.47;5012557;28;20060;-57
2021/03/23 08:36:44;;;;;;;28.73;12.20;;;;;;;4.33;67.20;96529.38;5053674;28;20053;-57
2021/03/23 08:39:15;;;;;;;25.48;11.13;;;;;;;3.99;66.86;96543.44;5053866;28;20068;-54
2021/03/23 08:42:11;;;;;;;22.83;10.98;;;;;;;4.08;66.18;96535.66;5053357;28;20053;-54
2021/03/23 08:44:57;;;;;;;23.08;10.52;;;;;;;4.37;65.96;96534.97;5052376;28;20110;-54
2021/03/23 08:47:32;;;;;;;21.73;11.13;;;;;;;4.26;65.65;96544.94;5032219;28;20053;-57
2021/03/23 08:50:09;;;;;;;18.15;10.35;;;;;;;3.91;67.04;96543.25;5045976;28;20474;-58
2021/03/23 08:52:44;;;;;;;20.52;10.50;;;;;;;4.01;66.15;96542.41;5054117;28;20045;-57
2021/03/23 08:55:33;;;;;;;21.05;9.35;;;;;;;4.24;65.54;96544.41;5050322;28;20057;-58
2021/03/23 08:58:13;;;;;;;22.98;10.20;;;;;;;4.47;65.22;96550.97;5049322;28;20095;-57
2021/03/23 09:00:58;;;;;;;18.65;10.05;;;;;;;4.33;64.26;96552.69;5055936;28;20045;-54
2021/03/23 09:03:48;;;;;;;19.27;10.15;;;;;;;4.48;63.78;96549.88;5052417;28;20106;-57
2021/03/23 09:06:21;;;;;;;20.42;10.73;;;;;;;4.62;63.36;96548.22;5057407;28;20087;-58
2021/03/23 09:09:13;;;;;;;19.70;10.15;;;;;;;4.63;64.00;96547.13;5055246;28;20045;-58
2021/03/23 09:12:01;;;;;;;18.60;9.70;;;;;;;4.62;64.28;96550.88;5044713;28;20411;-56
2021/03/23 09:14:28;;;;;;;19.55;8.88;;;;;;;4.86;62.03;96550.16;5034127;28;20049;-59
2021/03/23 09:16:58;;;;;;;18.58;9.82;;;;;;;4.68;62.45;96552.44;5033915;28;20056;-57
2021/03/23 09:19:39;;;;;;;20.98;8.10;;;;;;;4.67;61.04;96547.34;5043082;28;20055;-58
2021/03/23 09:22:33;;;;;;;15.63;8.05;;;;;;;4.76;61.73;96548.38;5049628;28;20063;-58
2021/03/23 09:25:22;;;;;;;17.80;8.85;;;;;;;4.88;61.58;96545.34;5058612;28;20421;-58
2021/03/23 09:27:48;;;;;;;19.13;9.38;;;;;;;5.09;61.64;96545.97;5049411;28;20392;-59
2021/03/23 09:30:46;;;;;;;19.98;8.98;;;;;;;4.83;59.97;96538.13;5044562;28;20049;-59
2021/03/23 09:33:22;;;;;;;14.25;7.07;;;;;;;4.88;58.24;96538.09;5049843;28;20052;-62
2021/03/23 09:36:05;;;;;;;16.60;8.80;;;;;;;4.65;59.59;96539.59;5041670;28;20068;-57
2021/03/23 09:38:40;;;;;;;14.80;7.45;;;;;;;4.75;58.06;96541.41;5046072;28;20060;-59
2021/03/23 09:41:23;;;;;;;14.27;7.03;;;;;;;4.87;57.41;96536.47;5049772;28;20083;-57
2021/03/23 09:44:14;;;;;;;15.05;7.43;;;;;;;5.30;55.61;96533.97;5043583;28;20606;-56
2021/03/23 09:46:44;;;;;;;11.48;5.68;;;;;;;5.53;52.90;96545.00;5048830;28;20059;-61
2021/03/23 09:49:29;;;;;;;11.02;6.13;;;;;;;4.85;54.88;96533.28;5065775;28;20051;-61
2021/03/23 09:52:02;;;;;;;16.25;6.80;;;;;;;5.14;55.90;96540.56;5044016;28;20037;-62
2021/03/23 09:54:37;;;;;;;14.02;6.10;;;;;;;5.40;53.65;96538.44;5044862;28;20041;-62
2021/03/23 09:57:12;;;;;;;10.00;5.30;;;;;;;5.46;51.11;96536.47;5044992;28;20049;-59
2021/03/23 10:00:00;;;;;;;9.63;5.57;;;;;;;5.37;52.53;96529.06;5044931;28;20037;-64
2021/03/23 10:02:36;;;;;;;14.55;7.13;;;;;;;5.03;54.20;96528.31;5045541;28;20083;-60
2021/03/23 10:05:23;;;;;;;11.55;5.93;;;;;;;4.92;54.72;96523.03;5045344;28;20506;-60
2021/03/23 10:07:52;;;;;;;18.17;8.02;;;;;;;5.03;56.10;96531.00;5044221;28;20048;-59
2021/03/23 10:10:29;;;;;;;14.65;7.15;;;;;;;4.80;55.72;96530.63;5046004;28;20052;-59
2021/03/23 10:13:18;;;;;;;18.50;6.80;;;;;;;4.57;54.19;96526.00;5046565;28;20045;-57
2021/03/23 10:15:45;;;;;;;11.30;5.93;;;;;;;4.41;53.85;96523.41;5041416;28;20053;-52
2021/03/23 10:18:12;;;;;;;12.05;5.40;;;;;;;4.43;53.88;96526.63;5044293;28;20048;-58
2021/03/23 10:20:39;;;;;;;10.13;4.50;;;;;;;4.56;51.52;96527.09;5044563;28;20491;-59
2021/03/23 10:23:06;;;;;;;10.75;4.57;;;;;;;4.55;51.75;96528.97;5042086;28;20079;-60
2021/03/23 10:25:33;;;;;;;12.02;5.40;;;;;;;4.63;52.52;96531.03;5042080;28;20049;-63
2021/03/23 10:28:02;;;;;;;11.48;5.30;;;;;;;4.86;53.31;96526.03;5044385;28;20092;-59
2021/03/23 10:30:35;;;;;;;12.88;5.60;;;;;;;4.87;53.34;96528.44;5046141;28;20049;-59
2021/03/23 10:33:24;;;;;;;14.55;6.15;;;;;;;4.95;53.92;96532.41;5049691;28;20167;-61
2021/03/23 10:35:59;;;;;;;15.63;6.60;;;;;;;4.80;55.44;96538.69;5031787;28;20061;-50
2021/03/23 10:38:29;;;;;;;15.32;7.78;;;;;;;4.83;56.24;96532.75;5042794;28;20048;-53
2021/03/23 10:40:58;;;;;;;15.10;7.10;;;;;;;4.67;55.81;96531.28;5045031;28;20126;-53
2021/03/23 10:43:31;;;;;;;12.32;6.78;;;;;;;4.80;55.18;96530.63;5043040;28;20060;-58
2021/03/23 10:45:59;;;;;;;12.35;6.90;;;;;;;4.84;54.33;96531.69;5043984;28;20069;-60
2021/03/23 10:48:38;;;;;;;15.07;6.00;;;;;;;5.07;53.39;96537.38;5043705;28;20052;-51
2021/03/23 10:51:28;;;;;;;12.15;4.90;;;;;;;4.89;51.50;96528.97;5044136;28;20081;-59
2021/03/23 10:53:58;;;;;;;11.90;4.90;;;;;;;4.85;52.04;96530.59;5045506;28;20057;-61
2021/03/23 10:56:30;;;;;;;12.23;4.80;;;;;;;5.00;52.19;96531.56;5042247;28;20049;-59
2021/03/23 10:59:31;;;;;;;10.73;5.25;;;;;;;4.90;53.52;96535.13;5044393;28;20470;-60
2021/03/23 11:02:16;;;;;;;10.32;6.43;;;;;;;4.95;54.18;96536.97;5035990;28;20049;-59
2021/03/23 11:04:59;;;;;;;13.88;5.40;;;;;;;5.48;53.15;96535.13;5041171;28;20508;-58
2021/03/23 11:07:31;;;;;;;14.70;6.13;;;;;;;5.06;55.29;96522.38;5040955;28;20076;-52
2021/03/23 11:10:00;;;;;;;18.10;7.88;;;;;;;5.22;55.95;96521.16;5046236;28;20041;-59
2021/03/23 11:12:28;;;;;;;16.15;8.35;;;;;;;5.20;56.34;96523.34;5043587;28;20079;-60
2021/03/23 11:14:57;;;;;;;14.15;7.10;;;;;;;5.78;55.24;96512.50;5044836;28;20107;-58
2021/03/23 11:17:24;;;;;;;13.75;6.57;;;;;;;5.75;54.43;96517.63;5043238;28;20053;-57
2021/03/23 11:19:55;;;;;;;18.05;8.20;;;;;;;5.70;54.54;96506.97;5041913;28;20057;-58
2021/03/23 11:22:31;;;;;;;12.50;7.05;;;;;;;5.75;54.20;96514.94;5046001;28;20052;-59
2021/03/23 11:24:58;;;;;;;14.05;7.35;;;;;;;5.48;53.75;96519.00;5049706;28;20049;-52
2021/03/23 11:27:28;;;;;;;15.50;7.38;;;;;;;5.30;54.75;96519.75;5057059;28;20168;-59
2021/03/23 11:29:56;;;;;;;13.25;6.85;;;;;;;5.30;55.11;96517.88;5036304;28;20049;-61
2021/03/23 11:32:24;;;;;;;11.23;5.45;;;;;;;5.00;53.77;96513.56;5044237;28;20422;-55
2021/03/23 11:34:51;;;;;;;13.48;7.00;;;;;;;5.60;54.79;96516.75;5042052;28;20072;-58
2021/03/23 11:37:19;;;;;;;14.63;8.00;;;;;;;5.88;53.08;96516.16;5041888;28;20122;-58
2021/03/23 11:39:45;;;;;;;16.20;8.07;;;;;;;5.83;54.14;96512.44;5044963;28;20095;-59
2021/03/23 11:42:50;;;;;;;20.63;8.25;;;;;;;5.81;54.55;96511.91;5041363;28;20073;-58
2021/03/23 11:45:39;;;;;;;16.88;7.93;;;;;;;5.79;55.46;96516.78;5022173;28;20052;-61
2021/03/23 11:48:11;;;;;;;16.13;8.27;;;;;;;5.73;54.58;96515.25;5042242;28;20395;-60
2021/03/23 11:50:42;;;;;;;18.70;8.38;;;;;;;5.75;55.04;96513.09;5062543;28;20052;-59
2021/03/23 11:53:09;;;;;;;12.18;7.13;;;;;;;5.63;55.07;96520.75;5044559;28;20095;-59
2021/03/23 11:55:41;;;;;;;13.00;7.22;;;;;;;5.88;55.04;96510.78;5042547;28;20121;-59
2021/03/23 11:58:08;;;;;;;17.55;8.48;;;;;;;5.81;54.84;96511.91;5042677;28;20430;-60
2021/03/23 12:00:35;;;;;;;16.75;8.23;;;;;;;5.82;55.16;96513.53;5043232;28;20439;-60
2021/03/23 12:03:06;;;;;;;14.10;8.20;;;;;;;5.65;55.69;96515.88;5045453;28;20054;-60